sensor_id;sensor_type;location;lat;lon;timestamp;pressure;altitude;pressure_sealevel;temperature
10869;BMP180;62667;48.698;8.762;2023-02-28T00:01:21;96471.00;;;-2.40
10869;BMP180;62667;48.698;8.762;2023-02-28T00:03:48;96461.00;;;-2.50
10869;BMP180;62667;48.698;8.762;2023-02-28T00:06:16;96470.00;;;-2.50
10869;BMP180;62667;48.698;8.762;2023-02-28T00:08:43;96477.00;;;-2.60
10869;BMP180;62667;48.698;8.762;2023-02-28T00:11:13;96472.00;;;-2.60
10869;BMP180;62667;48.698;8.762;2023-02-28T00:13:43;96477.00;;;-2.70
10869;BMP180;62667;48.698;8.762;2023-02-28T00:16:16;96483.00;;;-2.70
10869;BMP180;62667;48.698;8.762;2023-02-28T00:18:45;96480.00;;;-2.70
10869;BMP180;62667;48.698;8.762;2023-02-28T00:21:13;96480.00;;;-2.70
10869;BMP180;62667;48.698;8.762;2023-02-28T00:23:41;96473.00;;;-2.70
10869;BMP180;62667;48.698;8.762;2023-02-28T00:26:08;96469.00;;;-2.60
10869;BMP180;62667;48.698;8.762;2023-02-28T00:28:36;96473.00;;;-2.70
10869;BMP180;62667;48.698;8.762;2023-02-28T00:31:03;96468.00;;;-2.70
10869;BMP180;62667;48.698;8.762;2023-02-28T00:33:32;96471.00;;;-2.80
10869;BMP180;62667;48.698;8.762;2023-02-28T00:36:04;96470.00;;;-2.80
10869;BMP180;62667;48.698;8.762;2023-02-28T00:38:32;96470.00;;;-2.70
10869;BMP180;62667;48.698;8.762;2023-02-28T00:41:00;96474.00;;;-2.80
10869;BMP180;62667;48.698;8.762;2023-02-28T00:43:31;96470.00;;;-2.80
10869;BMP180;62667;48.698;8.762;2023-02-28T00:45:59;96480.00;;;-2.60
10869;BMP180;62667;48.698;8.762;2023-02-28T00:48:26;96472.00;;;-2.70
10869;BMP180;62667;48.698;8.762;2023-02-28T00:50:55;96469.00;;;-2.80
10869;BMP180;62667;48.698;8.762;2023-02-28T00:53:22;96471.00;;;-2.90
10869;BMP180;62667;48.698;8.762;2023-02-28T00:55:50;96464.00;;;-3.00
10869;BMP180;62667;48.698;8.762;2023-02-28T00:58:17;96458.00;;;-3.00
10869;BMP180;62667;48.698;8.762;2023-02-28T01:00:45;96469.00;;;-2.90
10869;BMP180;62667;48.698;8.762;2023-02-28T01:03:15;96467.00;;;-2.90
10869;BMP180;62667;48.698;8.762;2023-02-28T01:05:43;96453.00;;;-2.90
10869;BMP180;62667;48.698;8.762;2023-02-28T01:08:12;96460.00;;;-2.90
10869;BMP180;62667;48.698;8.762;2023-02-28T01:10:39;96464.00;;;-2.90
10869;BMP180;62667;48.698;8.762;2023-02-28T01:13:07;96469.00;;;-3.00
10869;BMP180;62667;48.698;8.762;2023-02-28T01:15:34;96461.00;;;-3.00
10869;BMP180;62667;48.698;8.762;2023-02-28T01:18:02;96459.00;;;-3.00
10869;BMP180;62667;48.698;8.762;2023-02-28T01:20:29;96455.00;;;-3.00
10869;BMP180;62667;48.698;8.762;2023-02-28T01:22:57;96446.00;;;-2.90
10869;BMP180;62667;48.698;8.762;2023-02-28T01:25:25;96449.00;;;-3.00
10869;BMP180;62667;48.698;8.762;2023-02-28T01:27:53;96458.00;;;-3.00
10869;BMP180;62667;48.698;8.762;2023-02-28T01:30:20;96455.00;;;-3.00
10869;BMP180;62667;48.698;8.762;2023-02-28T01:32:48;96454.00;;;-3.00
10869;BMP180;62667;48.698;8.762;2023-02-28T01:35:17;96452.00;;;-3.00
10869;BMP180;62667;48.698;8.762;2023-02-28T01:37:44;96455.00;;;-3.10
10869;BMP180;62667;48.698;8.762;2023-02-28T01:40:13;96464.00;;;-2.90
10869;BMP180;62667;48.698;8.762;2023-02-28T01:42:42;96460.00;;;-3.00
10869;BMP180;62667;48.698;8.762;2023-02-28T01:45:21;96456.00;;;-3.00
10869;BMP180;62667;48.698;8.762;2023-02-28T01:47:52;96441.00;;;-3.10
10869;BMP180;62667;48.698;8.762;2023-02-28T01:50:24;96441.00;;;-3.20
10869;BMP180;62667;48.698;8.762;2023-02-28T01:52:55;96449.00;;;-3.20
10869;BMP180;62667;48.698;8.762;2023-02-28T01:55:26;96442.00;;;-3.10
10869;BMP180;62667;48.698;8.762;2023-02-28T01:57:58;96436.00;;;-3.20
10869;BMP180;62667;48.698;8.762;2023-02-28T02:00:27;96434.00;;;-3.10
10869;BMP180;62667;48.698;8.762;2023-02-28T02:02:58;96440.00;;;-3.30
10869;BMP180;62667;48.698;8.762;2023-02-28T02:05:28;96439.00;;;-3.20
10869;BMP180;62667;48.698;8.762;2023-02-28T02:08:01;96441.00;;;-3.20
10869;BMP180;62667;48.698;8.762;2023-02-28T02:10:32;96429.00;;;-3.10
10869;BMP180;62667;48.698;8.762;2023-02-28T02:13:23;96428.00;;;-3.20
10869;BMP180;62667;48.698;8.762;2023-02-28T02:16:00;96425.00;;;-3.10
10869;BMP180;62667;48.698;8.762;2023-02-28T02:18:34;96419.00;;;-3.00
10869;BMP180;62667;48.698;8.762;2023-02-28T02:21:50;96419.00;;;-3.10
10869;BMP180;62667;48.698;8.762;2023-02-28T02:24:47;96430.00;;;-3.20
10869;BMP180;62667;48.698;8.762;2023-02-28T02:27:46;96412.00;;;-3.30
10869;BMP180;62667;48.698;8.762;2023-02-28T02:36:24;96415.00;;;-3.20
10869;BMP180;62667;48.698;8.762;2023-02-28T02:38:57;96418.00;;;-3.20
10869;BMP180;62667;48.698;8.762;2023-02-28T02:41:33;96418.00;;;-3.20
10869;BMP180;62667;48.698;8.762;2023-02-28T02:44:04;96419.00;;;-3.10
10869;BMP180;62667;48.698;8.762;2023-02-28T02:46:34;96421.00;;;-3.20
10869;BMP180;62667;48.698;8.762;2023-02-28T02:49:05;96430.00;;;-3.20
10869;BMP180;62667;48.698;8.762;2023-02-28T02:51:35;96419.00;;;-3.30
10869;BMP180;62667;48.698;8.762;2023-02-28T02:54:10;96424.00;;;-3.20
10869;BMP180;62667;48.698;8.762;2023-02-28T02:56:43;96426.00;;;-3.20
10869;BMP180;62667;48.698;8.762;2023-02-28T02:59:13;96422.00;;;-3.20
10869;BMP180;62667;48.698;8.762;2023-02-28T03:01:50;96421.00;;;-3.20
10869;BMP180;62667;48.698;8.762;2023-02-28T03:04:20;96429.00;;;-3.30
10869;BMP180;62667;48.698;8.762;2023-02-28T03:06:51;96415.00;;;-3.20
10869;BMP180;62667;48.698;8.762;2023-02-28T03:09:20;96427.00;;;-3.20
10869;BMP180;62667;48.698;8.762;2023-02-28T03:11:49;96425.00;;;-3.30
10869;BMP180;62667;48.698;8.762;2023-02-28T03:14:28;96426.00;;;-3.30
10869;BMP180;62667;48.698;8.762;2023-02-28T03:17:20;96419.00;;;-3.10
10869;BMP180;62667;48.698;8.762;2023-02-28T03:19:56;96425.00;;;-3.20
10869;BMP180;62667;48.698;8.762;2023-02-28T03:22:57;96426.00;;;-3.20
10869;BMP180;62667;48.698;8.762;2023-02-28T03:25:33;96422.00;;;-3.10
10869;BMP180;62667;48.698;8.762;2023-02-28T03:28:09;96422.00;;;-3.20
10869;BMP180;62667;48.698;8.762;2023-02-28T03:30:45;96415.00;;;-3.20
10869;BMP180;62667;48.698;8.762;2023-02-28T03:33:20;96415.00;;;-3.20
10869;BMP180;62667;48.698;8.762;2023-02-28T03:35:51;96429.00;;;-3.20
10869;BMP180;62667;48.698;8.762;2023-02-28T03:38:26;96415.00;;;-3.20
10869;BMP180;62667;48.698;8.762;2023-02-28T03:43:27;96411.00;;;-3.10
10869;BMP180;62667;48.698;8.762;2023-02-28T03:45:57;96412.00;;;-3.10
10869;BMP180;62667;48.698;8.762;2023-02-28T03:48:30;96398.00;;;-3.10
10869;BMP180;62667;48.698;8.762;2023-02-28T03:51:00;96418.00;;;-3.00
10869;BMP180;62667;48.698;8.762;2023-02-28T03:53:34;96411.00;;;-2.90
10869;BMP180;62667;48.698;8.762;2023-02-28T03:56:07;96412.00;;;-2.90
10869;BMP180;62667;48.698;8.762;2023-02-28T03:58:39;96415.00;;;-3.00
10869;BMP180;62667;48.698;8.762;2023-02-28T04:01:12;96422.00;;;-3.00
10869;BMP180;62667;48.698;8.762;2023-02-28T04:03:40;96417.00;;;-2.90
10869;BMP180;62667;48.698;8.762;2023-02-28T04:06:13;96419.00;;;-3.00
10869;BMP180;62667;48.698;8.762;2023-02-28T04:08:42;96421.00;;;-2.90
10869;BMP180;62667;48.698;8.762;2023-02-28T04:11:21;96371.00;;;-3.00
10869;BMP180;62667;48.698;8.762;2023-02-28T04:13:49;96413.00;;;-2.90
10869;BMP180;62667;48.698;8.762;2023-02-28T04:16:16;96416.00;;;-2.80
10869;BMP180;62667;48.698;8.762;2023-02-28T04:18:44;96422.00;;;-2.80
10869;BMP180;62667;48.698;8.762;2023-02-28T04:21:12;96422.00;;;-2.80
10869;BMP180;62667;48.698;8.762;2023-02-28T04:23:41;96419.00;;;-2.80
10869;BMP180;62667;48.698;8.762;2023-02-28T04:26:09;96414.00;;;-2.80
10869;BMP180;62667;48.698;8.762;2023-02-28T04:28:37;96415.00;;;-2.90
10869;BMP180;62667;48.698;8.762;2023-02-28T04:31:05;96420.00;;;-2.80
10869;BMP180;62667;48.698;8.762;2023-02-28T04:33:33;96409.00;;;-2.80
10869;BMP180;62667;48.698;8.762;2023-02-28T04:36:01;96415.00;;;-2.80
10869;BMP180;62667;48.698;8.762;2023-02-28T04:38:30;96412.00;;;-2.80
10869;BMP180;62667;48.698;8.762;2023-02-28T04:41:00;96410.00;;;-2.80
10869;BMP180;62667;48.698;8.762;2023-02-28T04:43:28;96413.00;;;-2.80
10869;BMP180;62667;48.698;8.762;2023-02-28T04:45:57;96416.00;;;-2.70
10869;BMP180;62667;48.698;8.762;2023-02-28T04:48:27;96416.00;;;-2.70
10869;BMP180;62667;48.698;8.762;2023-02-28T04:50:54;96413.00;;;-2.60
10869;BMP180;62667;48.698;8.762;2023-02-28T04:53:22;96414.00;;;-2.80
10869;BMP180;62667;48.698;8.762;2023-02-28T04:55:50;96417.00;;;-2.80
10869;BMP180;62667;48.698;8.762;2023-02-28T04:58:19;96409.00;;;-2.70
10869;BMP180;62667;48.698;8.762;2023-02-28T05:00:49;96409.00;;;-2.90
10869;BMP180;62667;48.698;8.762;2023-02-28T05:03:16;96417.00;;;-2.80
10869;BMP180;62667;48.698;8.762;2023-02-28T05:05:44;96421.00;;;-2.70
10869;BMP180;62667;48.698;8.762;2023-02-28T05:08:12;96420.00;;;-2.70
10869;BMP180;62667;48.698;8.762;2023-02-28T05:10:39;96410.00;;;-2.70
10869;BMP180;62667;48.698;8.762;2023-02-28T05:13:08;96422.00;;;-2.60
10869;BMP180;62667;48.698;8.762;2023-02-28T05:15:38;96422.00;;;-2.60
10869;BMP180;62667;48.698;8.762;2023-02-28T05:18:05;96439.00;;;-2.60
10869;BMP180;62667;48.698;8.762;2023-02-28T05:20:33;96428.00;;;-2.60
10869;BMP180;62667;48.698;8.762;2023-02-28T05:23:01;96420.00;;;-2.60
10869;BMP180;62667;48.698;8.762;2023-02-28T05:25:29;96431.00;;;-2.60
10869;BMP180;62667;48.698;8.762;2023-02-28T05:27:56;96422.00;;;-2.60
10869;BMP180;62667;48.698;8.762;2023-02-28T05:30:24;96424.00;;;-2.50
10869;BMP180;62667;48.698;8.762;2023-02-28T05:32:53;96428.00;;;-2.50
10869;BMP180;62667;48.698;8.762;2023-02-28T05:35:20;96431.00;;;-2.50
10869;BMP180;62667;48.698;8.762;2023-02-28T05:37:47;96425.00;;;-2.60
10869;BMP180;62667;48.698;8.762;2023-02-28T05:40:15;96427.00;;;-2.50
10869;BMP180;62667;48.698;8.762;2023-02-28T05:42:42;96417.00;;;-2.50
10869;BMP180;62667;48.698;8.762;2023-02-28T05:45:10;96419.00;;;-2.50
10869;BMP180;62667;48.698;8.762;2023-02-28T05:47:38;96418.00;;;-2.50
10869;BMP180;62667;48.698;8.762;2023-02-28T05:50:08;96416.00;;;-2.60
10869;BMP180;62667;48.698;8.762;2023-02-28T05:52:36;96412.00;;;-2.50
10869;BMP180;62667;48.698;8.762;2023-02-28T05:55:05;96425.00;;;-2.00
10869;BMP180;62667;48.698;8.762;2023-02-28T05:57:32;96412.00;;;-1.90
10869;BMP180;62667;48.698;8.762;2023-02-28T06:00:00;96417.00;;;-1.80
10869;BMP180;62667;48.698;8.762;2023-02-28T06:02:27;96425.00;;;-1.60
10869;BMP180;62667;48.698;8.762;2023-02-28T06:04:55;96414.00;;;-1.40
10869;BMP180;62667;48.698;8.762;2023-02-28T06:07:23;96419.00;;;-1.50
10869;BMP180;62667;48.698;8.762;2023-02-28T06:09:51;96420.00;;;-1.80
10869;BMP180;62667;48.698;8.762;2023-02-28T06:12:18;96421.00;;;-1.90
10869;BMP180;62667;48.698;8.762;2023-02-28T06:14:46;96423.00;;;-1.80
10869;BMP180;62667;48.698;8.762;2023-02-28T06:17:13;96427.00;;;-2.00
10869;BMP180;62667;48.698;8.762;2023-02-28T06:19:40;96430.00;;;-2.10
10869;BMP180;62667;48.698;8.762;2023-02-28T06:22:08;96430.00;;;-2.20
10869;BMP180;62667;48.698;8.762;2023-02-28T06:24:37;96445.00;;;-2.30
10869;BMP180;62667;48.698;8.762;2023-02-28T06:27:04;96450.00;;;-2.30
10869;BMP180;62667;48.698;8.762;2023-02-28T06:29:32;96442.00;;;-2.30
10869;BMP180;62667;48.698;8.762;2023-02-28T06:31:59;96451.00;;;-2.40
10869;BMP180;62667;48.698;8.762;2023-02-28T06:34:27;96453.00;;;-2.30
10869;BMP180;62667;48.698;8.762;2023-02-28T06:36:54;96456.00;;;-2.40
10869;BMP180;62667;48.698;8.762;2023-02-28T06:39:21;96448.00;;;-2.30
10869;BMP180;62667;48.698;8.762;2023-02-28T06:41:50;96449.00;;;-2.30
10869;BMP180;62667;48.698;8.762;2023-02-28T06:44:18;96452.00;;;-2.30
10869;BMP180;62667;48.698;8.762;2023-02-28T06:46:46;96448.00;;;-2.30
10869;BMP180;62667;48.698;8.762;2023-02-28T06:49:14;96460.00;;;-2.20
10869;BMP180;62667;48.698;8.762;2023-02-28T06:51:43;96465.00;;;-2.10
10869;BMP180;62667;48.698;8.762;2023-02-28T06:54:11;96459.00;;;-2.00
10869;BMP180;62667;48.698;8.762;2023-02-28T06:56:39;96462.00;;;-2.00
10869;BMP180;62667;48.698;8.762;2023-02-28T06:59:08;96461.00;;;-2.10
10869;BMP180;62667;48.698;8.762;2023-02-28T07:01:35;96468.00;;;-2.10
10869;BMP180;62667;48.698;8.762;2023-02-28T07:04:03;96463.00;;;-2.00
10869;BMP180;62667;48.698;8.762;2023-02-28T07:06:31;96465.00;;;-1.90
10869;BMP180;62667;48.698;8.762;2023-02-28T07:08:59;96471.00;;;-1.90
10869;BMP180;62667;48.698;8.762;2023-02-28T07:11:28;96472.00;;;-1.80
10869;BMP180;62667;48.698;8.762;2023-02-28T07:13:55;96476.00;;;-1.80
10869;BMP180;62667;48.698;8.762;2023-02-28T07:16:25;96471.00;;;-1.80
10869;BMP180;62667;48.698;8.762;2023-02-28T07:18:53;96483.00;;;-1.80
10869;BMP180;62667;48.698;8.762;2023-02-28T07:21:21;96475.00;;;-1.70
10869;BMP180;62667;48.698;8.762;2023-02-28T07:23:48;96474.00;;;-1.60
10869;BMP180;62667;48.698;8.762;2023-02-28T07:26:17;96477.00;;;-1.40
10869;BMP180;62667;48.698;8.762;2023-02-28T07:28:47;96479.00;;;-1.50
10869;BMP180;62667;48.698;8.762;2023-02-28T07:31:15;96479.00;;;-1.50
10869;BMP180;62667;48.698;8.762;2023-02-28T07:33:44;96470.00;;;-1.40
10869;BMP180;62667;48.698;8.762;2023-02-28T07:36:14;96472.00;;;-1.50
10869;BMP180;62667;48.698;8.762;2023-02-28T07:38:43;96477.00;;;-1.40
10869;BMP180;62667;48.698;8.762;2023-02-28T07:41:12;96486.00;;;-1.20
10869;BMP180;62667;48.698;8.762;2023-02-28T07:43:39;96483.00;;;-1.00
10869;BMP180;62667;48.698;8.762;2023-02-28T07:46:09;96480.00;;;-1.10
10869;BMP180;62667;48.698;8.762;2023-02-28T07:48:37;96466.00;;;-1.00
10869;BMP180;62667;48.698;8.762;2023-02-28T07:51:06;96464.00;;;-1.20
10869;BMP180;62667;48.698;8.762;2023-02-28T07:53:34;96471.00;;;-1.10
10869;BMP180;62667;48.698;8.762;2023-02-28T07:56:03;96483.00;;;-1.20
10869;BMP180;62667;48.698;8.762;2023-02-28T07:58:31;96475.00;;;-1.10
10869;BMP180;62667;48.698;8.762;2023-02-28T08:01:05;96487.00;;;-1.00
10869;BMP180;62667;48.698;8.762;2023-02-28T08:03:33;96477.00;;;-1.10
10869;BMP180;62667;48.698;8.762;2023-02-28T08:06:01;96480.00;;;-1.20
10869;BMP180;62667;48.698;8.762;2023-02-28T08:08:31;96489.00;;;-1.20
10869;BMP180;62667;48.698;8.762;2023-02-28T08:10:59;96486.00;;;-1.20
10869;BMP180;62667;48.698;8.762;2023-02-28T08:13:28;96485.00;;;-1.30
10869;BMP180;62667;48.698;8.762;2023-02-28T08:15:55;96479.00;;;-1.40
10869;BMP180;62667;48.698;8.762;2023-02-28T08:18:23;96496.00;;;-1.30
10869;BMP180;62667;48.698;8.762;2023-02-28T08:20:51;96496.00;;;-1.20
10869;BMP180;62667;48.698;8.762;2023-02-28T08:23:18;96489.00;;;-1.20
10869;BMP180;62667;48.698;8.762;2023-02-28T08:25:54;96490.00;;;-1.20
10869;BMP180;62667;48.698;8.762;2023-02-28T08:28:22;96488.00;;;-1.10
10869;BMP180;62667;48.698;8.762;2023-02-28T08:30:50;96489.00;;;-1.00
10869;BMP180;62667;48.698;8.762;2023-02-28T08:33:17;96496.00;;;-1.00
10869;BMP180;62667;48.698;8.762;2023-02-28T08:35:44;96498.00;;;-0.90
10869;BMP180;62667;48.698;8.762;2023-02-28T08:38:12;96491.00;;;-1.00
10869;BMP180;62667;48.698;8.762;2023-02-28T08:40:39;96499.00;;;-0.90
10869;BMP180;62667;48.698;8.762;2023-02-28T08:43:08;96507.00;;;-0.90
10869;BMP180;62667;48.698;8.762;2023-02-28T08:45:36;96491.00;;;-0.90
10869;BMP180;62667;48.698;8.762;2023-02-28T08:48:04;96509.00;;;-0.90
10869;BMP180;62667;48.698;8.762;2023-02-28T08:50:31;96498.00;;;-0.80
10869;BMP180;62667;48.698;8.762;2023-02-28T08:52:58;96513.00;;;-0.80
10869;BMP180;62667;48.698;8.762;2023-02-28T08:55:26;96509.00;;;-0.80
10869;BMP180;62667;48.698;8.762;2023-02-28T08:57:53;96505.00;;;-0.80
10869;BMP180;62667;48.698;8.762;2023-02-28T09:00:23;96523.00;;;-0.80
10869;BMP180;62667;48.698;8.762;2023-02-28T09:02:51;96521.00;;;-0.80
10869;BMP180;62667;48.698;8.762;2023-02-28T09:05:18;96523.00;;;-0.90
10869;BMP180;62667;48.698;8.762;2023-02-28T09:07:45;96529.00;;;-0.90
10869;BMP180;62667;48.698;8.762;2023-02-28T09:10:13;96521.00;;;-0.80
10869;BMP180;62667;48.698;8.762;2023-02-28T09:12:40;96530.00;;;-0.80
10869;BMP180;62667;48.698;8.762;2023-02-28T09:15:09;96522.00;;;-0.80
10869;BMP180;62667;48.698;8.762;2023-02-28T09:17:37;96533.00;;;-0.70
10869;BMP180;62667;48.698;8.762;2023-02-28T09:20:06;96529.00;;;-0.70
10869;BMP180;62667;48.698;8.762;2023-02-28T09:22:34;96530.00;;;-0.60
10869;BMP180;62667;48.698;8.762;2023-02-28T09:25:01;96535.00;;;-0.60
10869;BMP180;62667;48.698;8.762;2023-02-28T09:27:28;96527.00;;;-0.60
10869;BMP180;62667;48.698;8.762;2023-02-28T09:29:56;96520.00;;;-0.50
10869;BMP180;62667;48.698;8.762;2023-02-28T09:32:23;96520.00;;;-0.50
10869;BMP180;62667;48.698;8.762;2023-02-28T09:34:52;96508.00;;;-0.40
10869;BMP180;62667;48.698;8.762;2023-02-28T09:37:20;96515.00;;;-0.30
10869;BMP180;62667;48.698;8.762;2023-02-28T09:39:47;96524.00;;;-0.30
10869;BMP180;62667;48.698;8.762;2023-02-28T09:42:22;96524.00;;;-0.30
10869;BMP180;62667;48.698;8.762;2023-02-28T09:44:52;96518.00;;;-0.20
10869;BMP180;62667;48.698;8.762;2023-02-28T09:47:27;96523.00;;;-0.30
10869;BMP180;62667;48.698;8.762;2023-02-28T09:50:03;96534.00;;;-0.30
10869;BMP180;62667;48.698;8.762;2023-02-28T09:52:34;96526.00;;;-0.30
10869;BMP180;62667;48.698;8.762;2023-02-28T09:55:16;96531.00;;;-0.20
10869;BMP180;62667;48.698;8.762;2023-02-28T09:57:45;96544.00;;;-0.20
10869;BMP180;62667;48.698;8.762;2023-02-28T10:00:17;96527.00;;;-0.30
10869;BMP180;62667;48.698;8.762;2023-02-28T10:03:01;96535.00;;;-0.20
10869;BMP180;62667;48.698;8.762;2023-02-28T10:05:36;96528.00;;;-0.10
10869;BMP180;62667;48.698;8.762;2023-02-28T10:08:11;96537.00;;;-0.10
10869;BMP180;62667;48.698;8.762;2023-02-28T10:10:41;96537.00;;;0.00
10869;BMP180;62667;48.698;8.762;2023-02-28T10:13:17;96548.00;;;0.00
10869;BMP180;62667;48.698;8.762;2023-02-28T10:15:50;96547.00;;;0.00
10869;BMP180;62667;48.698;8.762;2023-02-28T10:18:23;96542.00;;;-0.20
10869;BMP180;62667;48.698;8.762;2023-02-28T10:20:54;96549.00;;;0.00
10869;BMP180;62667;48.698;8.762;2023-02-28T10:23:25;96554.00;;;0.00
10869;BMP180;62667;48.698;8.762;2023-02-28T10:25:57;96555.00;;;-0.20
10869;BMP180;62667;48.698;8.762;2023-02-28T10:28:26;96557.00;;;-0.20
10869;BMP180;62667;48.698;8.762;2023-02-28T10:30:57;96559.00;;;0.00
10869;BMP180;62667;48.698;8.762;2023-02-28T10:33:30;96555.00;;;0.00
10869;BMP180;62667;48.698;8.762;2023-02-28T10:35:59;96552.00;;;0.10
10869;BMP180;62667;48.698;8.762;2023-02-28T10:38:32;96551.00;;;0.20
10869;BMP180;62667;48.698;8.762;2023-02-28T10:41:07;96563.00;;;0.20
10869;BMP180;62667;48.698;8.762;2023-02-28T10:43:36;96558.00;;;0.20
10869;BMP180;62667;48.698;8.762;2023-02-28T10:46:11;96557.00;;;0.40
10869;BMP180;62667;48.698;8.762;2023-02-28T10:48:42;96545.00;;;0.30
10869;BMP180;62667;48.698;8.762;2023-02-28T10:51:13;96557.00;;;0.10
10869;BMP180;62667;48.698;8.762;2023-02-28T10:53:48;96549.00;;;0.00
10869;BMP180;62667;48.698;8.762;2023-02-28T10:56:19;96559.00;;;0.20
10869;BMP180;62667;48.698;8.762;2023-02-28T10:58:53;96559.00;;;-0.10
10869;BMP180;62667;48.698;8.762;2023-02-28T11:01:22;96569.00;;;0.00
10869;BMP180;62667;48.698;8.762;2023-02-28T11:03:51;96568.00;;;0.40
10869;BMP180;62667;48.698;8.762;2023-02-28T11:06:22;96559.00;;;0.60
10869;BMP180;62667;48.698;8.762;2023-02-28T11:08:53;96556.00;;;0.50
10869;BMP180;62667;48.698;8.762;2023-02-28T11:11:22;96565.00;;;0.70
10869;BMP180;62667;48.698;8.762;2023-02-28T11:13:53;96560.00;;;0.70
10869;BMP180;62667;48.698;8.762;2023-02-28T11:16:21;96560.00;;;0.80
10869;BMP180;62667;48.698;8.762;2023-02-28T11:18:58;96565.00;;;1.10
10869;BMP180;62667;48.698;8.762;2023-02-28T11:21:29;96558.00;;;1.20
10869;BMP180;62667;48.698;8.762;2023-02-28T11:24:00;96555.00;;;0.90
10869;BMP180;62667;48.698;8.762;2023-02-28T11:26:40;96553.00;;;0.90
10869;BMP180;62667;48.698;8.762;2023-02-28T11:29:17;96561.00;;;1.20
10869;BMP180;62667;48.698;8.762;2023-02-28T11:32:05;96559.00;;;1.20
10869;BMP180;62667;48.698;8.762;2023-02-28T11:34:39;96558.00;;;1.20
10869;BMP180;62667;48.698;8.762;2023-02-28T11:37:11;96550.00;;;1.50
10869;BMP180;62667;48.698;8.762;2023-02-28T11:39:39;96554.00;;;1.60
10869;BMP180;62667;48.698;8.762;2023-02-28T11:42:39;96556.00;;;1.60
10869;BMP180;62667;48.698;8.762;2023-02-28T11:45:24;96559.00;;;1.80
10869;BMP180;62667;48.698;8.762;2023-02-28T11:48:07;96561.00;;;2.10
10869;BMP180;62667;48.698;8.762;2023-02-28T11:50:51;96555.00;;;2.40
10869;BMP180;62667;48.698;8.762;2023-02-28T11:53:36;96558.00;;;2.50
10869;BMP180;62667;48.698;8.762;2023-02-28T11:56:11;96543.00;;;2.60
10869;BMP180;62667;48.698;8.762;2023-02-28T11:58:54;96545.00;;;2.60
10869;BMP180;62667;48.698;8.762;2023-02-28T12:01:51;96541.00;;;2.70
10869;BMP180;62667;48.698;8.762;2023-02-28T12:04:27;96546.00;;;3.20
10869;BMP180;62667;48.698;8.762;2023-02-28T12:07:02;96540.00;;;3.50
10869;BMP180;62667;48.698;8.762;2023-02-28T12:09:52;96534.00;;;3.40
10869;BMP180;62667;48.698;8.762;2023-02-28T12:12:38;96528.00;;;3.70
10869;BMP180;62667;48.698;8.762;2023-02-28T12:15:26;96534.00;;;3.60
10869;BMP180;62667;48.698;8.762;2023-02-28T12:18:11;96526.00;;;4.60
10869;BMP180;62667;48.698;8.762;2023-02-28T12:20:45;96542.00;;;5.50
10869;BMP180;62667;48.698;8.762;2023-02-28T12:23:26;96539.00;;;5.60
10869;BMP180;62667;48.698;8.762;2023-02-28T12:26:10;96534.00;;;5.80
10869;BMP180;62667;48.698;8.762;2023-02-28T12:28:44;96537.00;;;5.40
10869;BMP180;62667;48.698;8.762;2023-02-28T12:31:19;96530.00;;;4.80
10869;BMP180;62667;48.698;8.762;2023-02-28T12:33:52;96503.00;;;5.10
10869;BMP180;62667;48.698;8.762;2023-02-28T12:36:21;96508.00;;;6.40
10869;BMP180;62667;48.698;8.762;2023-02-28T12:38:55;96497.00;;;6.70
10869;BMP180;62667;48.698;8.762;2023-02-28T12:41:42;96503.00;;;7.40
10869;BMP180;62667;48.698;8.762;2023-02-28T12:44:17;96493.00;;;7.40
10869;BMP180;62667;48.698;8.762;2023-02-28T12:46:48;96486.00;;;6.50
10869;BMP180;62667;48.698;8.762;2023-02-28T12:49:21;96489.00;;;7.10
10869;BMP180;62667;48.698;8.762;2023-02-28T12:51:51;96488.00;;;7.00
10869;BMP180;62667;48.698;8.762;2023-02-28T12:54:25;96493.00;;;7.40
10869;BMP180;62667;48.698;8.762;2023-02-28T12:57:08;96477.00;;;7.20
10869;BMP180;62667;48.698;8.762;2023-02-28T12:59:41;96478.00;;;8.30
10869;BMP180;62667;48.698;8.762;2023-02-28T13:02:39;96477.00;;;8.70
10869;BMP180;62667;48.698;8.762;2023-02-28T13:05:45;96469.00;;;8.00
10869;BMP180;62667;48.698;8.762;2023-02-28T13:08:49;96483.00;;;8.20
10869;BMP180;62667;48.698;8.762;2023-02-28T13:11:29;96463.00;;;8.40
10869;BMP180;62667;48.698;8.762;2023-02-28T13:14:03;96463.00;;;8.10
10869;BMP180;62667;48.698;8.762;2023-02-28T13:16:56;96465.00;;;8.30
10869;BMP180;62667;48.698;8.762;2023-02-28T13:19:26;96455.00;;;8.50
10869;BMP180;62667;48.698;8.762;2023-02-28T13:21:55;96458.00;;;8.90
10869;BMP180;62667;48.698;8.762;2023-02-28T13:24:48;96459.00;;;9.20
10869;BMP180;62667;48.698;8.762;2023-02-28T13:27:37;96468.00;;;8.60
10869;BMP180;62667;48.698;8.762;2023-02-28T13:33:29;96466.00;;;9.10
10869;BMP180;62667;48.698;8.762;2023-02-28T13:36:26;96457.00;;;9.30
10869;BMP180;62667;48.698;8.762;2023-02-28T13:38:57;96452.00;;;9.90
10869;BMP180;62667;48.698;8.762;2023-02-28T13:41:59;96455.00;;;12.20
10869;BMP180;62667;48.698;8.762;2023-02-28T13:45:23;96446.00;;;12.50
10869;BMP180;62667;48.698;8.762;2023-02-28T13:47:56;96436.00;;;12.50
10869;BMP180;62667;48.698;8.762;2023-02-28T13:50:30;96425.00;;;12.80
10869;BMP180;62667;48.698;8.762;2023-02-28T13:56:16;96441.00;;;15.90
10869;BMP180;62667;48.698;8.762;2023-02-28T13:58:54;96516.00;;;17.30
10869;BMP180;62667;48.698;8.762;2023-02-28T14:01:55;96518.00;;;13.90
10869;BMP180;62667;48.698;8.762;2023-02-28T14:04:48;96520.00;;;11.70
10869;BMP180;62667;48.698;8.762;2023-02-28T14:07:21;96443.00;;;10.70
10869;BMP180;62667;48.698;8.762;2023-02-28T14:09:59;96447.00;;;14.40
10869;BMP180;62667;48.698;8.762;2023-02-28T14:13:11;96445.00;;;18.20
10869;BMP180;62667;48.698;8.762;2023-02-28T14:15:54;96452.00;;;20.80
10869;BMP180;62667;48.698;8.762;2023-02-28T14:18:30;96457.00;;;22.30
10869;BMP180;62667;48.698;8.762;2023-02-28T14:21:03;96463.00;;;24.10
10869;BMP180;62667;48.698;8.762;2023-02-28T14:27:06;96466.00;;;22.90
10869;BMP180;62667;48.698;8.762;2023-02-28T14:33:01;96469.00;;;23.20
10869;BMP180;62667;48.698;8.762;2023-02-28T14:36:08;96525.00;;;22.80
10869;BMP180;62667;48.698;8.762;2023-02-28T14:38:43;96542.00;;;23.00
10869;BMP180;62667;48.698;8.762;2023-02-28T14:41:19;96470.00;;;22.90
10869;BMP180;62667;48.698;8.762;2023-02-28T14:43:54;96533.00;;;23.70
10869;BMP180;62667;48.698;8.762;2023-02-28T14:46:25;96485.00;;;23.80
10869;BMP180;62667;48.698;8.762;2023-02-28T14:48:53;96477.00;;;22.20
10869;BMP180;62667;48.698;8.762;2023-02-28T14:51:23;96476.00;;;24.30
10869;BMP180;62667;48.698;8.762;2023-02-28T14:53:58;96493.00;;;24.60
10869;BMP180;62667;48.698;8.762;2023-02-28T14:56:32;96505.00;;;26.10
10869;BMP180;62667;48.698;8.762;2023-02-28T14:59:00;96494.00;;;26.50
10869;BMP180;62667;48.698;8.762;2023-02-28T15:01:28;96500.00;;;25.80
10869;BMP180;62667;48.698;8.762;2023-02-28T15:04:00;96503.00;;;26.50